createdAt,value
2022-09-06T00:00:03.507Z,9.70
2022-09-06T00:00:13.512Z,10.10
2022-09-06T00:00:23.579Z,9.70
2022-09-06T00:00:33.538Z,10.00
2022-09-06T00:00:43.516Z,10.00
2022-09-06T00:00:53.517Z,10.20
2022-09-06T00:01:03.546Z,10.50
2022-09-06T00:01:13.509Z,9.40
2022-09-06T00:01:23.599Z,8.80
2022-09-06T00:01:33.505Z,8.20
2022-09-06T00:01:43.546Z,8.70
2022-09-06T00:01:53.521Z,8.90
2022-09-06T00:02:03.498Z,8.70
2022-09-06T00:02:13.523Z,8.50
2022-09-06T00:02:23.561Z,9.10
2022-09-06T00:02:33.539Z,9.30
2022-09-06T00:02:43.653Z,9.80
2022-09-06T00:02:53.630Z,9.40
2022-09-06T00:03:04.354Z,9.60
2022-09-06T00:03:13.560Z,9.60
2022-09-06T00:03:23.496Z,9.90
2022-09-06T00:03:33.631Z,9.90
2022-09-06T00:03:43.613Z,10.20
2022-09-06T00:03:53.536Z,10.00
2022-09-06T00:04:03.547Z,9.50
2022-09-06T00:04:15.523Z,9.20
2022-09-06T00:04:23.582Z,9.10
2022-09-06T00:04:33.615Z,9.30
2022-09-06T00:04:43.509Z,9.40
2022-09-06T00:04:53.490Z,9.60
2022-09-06T00:05:03.494Z,9.60
2022-09-06T00:05:13.554Z,9.80
2022-09-06T00:05:23.488Z,9.90
2022-09-06T00:05:33.503Z,10.30
2022-09-06T00:05:43.504Z,9.50
2022-09-06T00:05:53.494Z,8.90
2022-09-06T00:06:03.529Z,8.60
2022-09-06T00:06:14.335Z,9.20
2022-09-06T00:06:23.476Z,9.50
2022-09-06T00:06:33.488Z,9.30
2022-09-06T00:06:43.484Z,9.70
2022-09-06T00:06:53.495Z,10.40
2022-09-06T00:07:03.490Z,10.40
2022-09-06T00:07:13.602Z,10.20
2022-09-06T00:07:23.520Z,9.80
2022-09-06T00:07:33.486Z,9.80
2022-09-06T00:07:43.471Z,8.70
2022-09-06T00:07:53.475Z,7.70
2022-09-06T00:08:03.492Z,10.10
2022-09-06T00:08:13.472Z,10.30
2022-09-06T00:08:23.546Z,9.40
2022-09-06T00:08:33.497Z,8.80
2022-09-06T00:08:44.358Z,9.00
2022-09-06T00:08:53.470Z,9.30
2022-09-06T00:09:03.480Z,9.30
2022-09-06T00:09:13.480Z,9.70
2022-09-06T00:09:23.474Z,9.30
2022-09-06T00:09:33.482Z,9.20
2022-09-06T00:09:43.462Z,9.50
2022-09-06T00:09:53.476Z,9.50
2022-09-06T00:10:03.472Z,9.70
2022-09-06T00:10:13.470Z,9.30
2022-09-06T00:10:23.472Z,9.60
2022-09-06T00:10:34.348Z,9.20
2022-09-06T00:10:43.472Z,9.20
2022-09-06T00:10:56.774Z,9.60
2022-09-06T00:11:03.458Z,9.30
2022-09-06T00:11:13.459Z,8.90
2022-09-06T00:11:23.460Z,10.00
2022-09-06T00:11:33.521Z,10.30
2022-09-06T00:11:43.455Z,10.40
2022-09-06T00:11:53.540Z,8.80
2022-09-06T00:12:03.461Z,9.10
2022-09-06T00:12:13.463Z,9.20
2022-09-06T00:12:23.457Z,9.50
2022-09-06T00:12:33.469Z,9.30
2022-09-06T00:12:43.461Z,9.70
2022-09-06T00:12:53.553Z,9.40
2022-09-06T00:13:03.469Z,9.30
2022-09-06T00:13:13.466Z,8.20
2022-09-06T00:13:23.475Z,7.90
2022-09-06T00:13:34.352Z,8.30
2022-09-06T00:13:43.446Z,8.80
2022-09-06T00:13:53.499Z,9.10
2022-09-06T00:14:03.446Z,8.50
2022-09-06T00:14:14.473Z,8.90
2022-09-06T00:14:23.545Z,8.90
2022-09-06T00:14:33.458Z,9.30
2022-09-06T00:14:43.516Z,9.60
2022-09-06T00:14:53.443Z,10.00
2022-09-06T00:15:03.444Z,10.80
2022-09-06T00:15:13.472Z,10.40
2022-09-06T00:15:23.456Z,10.00
2022-09-06T00:15:33.589Z,9.90
2022-09-06T00:15:43.556Z,10.00
2022-09-06T00:15:53.498Z,9.80
2022-09-06T00:16:03.497Z,9.60
2022-09-06T00:16:13.549Z,9.70
2022-09-06T00:16:25.379Z,12.00
2022-09-06T00:16:33.449Z,11.40
2022-09-06T00:16:43.443Z,14.60
2022-09-06T00:16:53.434Z,11.00
2022-09-06T00:17:03.435Z,10.60
2022-09-06T00:17:13.433Z,10.30
2022-09-06T00:17:23.431Z,10.70
2022-09-06T00:17:33.445Z,10.80
2022-09-06T00:17:43.473Z,10.50
2022-09-06T00:17:54.400Z,10.00
2022-09-06T00:18:03.441Z,10.40
2022-09-06T00:18:13.439Z,9.70
2022-09-06T00:18:23.511Z,10.00
2022-09-06T00:18:33.444Z,8.90
2022-09-06T00:18:43.479Z,10.10
2022-09-06T00:18:53.430Z,11.00
2022-09-06T00:19:03.496Z,11.50
2022-09-06T00:19:13.427Z,10.30
2022-09-06T00:19:23.436Z,9.70
2022-09-06T00:19:33.430Z,9.80
2022-09-06T00:19:43.429Z,10.50
2022-09-06T00:19:53.481Z,10.40
2022-09-06T00:20:03.419Z,11.00
2022-09-06T00:20:14.340Z,11.00
2022-09-06T00:20:23.427Z,11.10
2022-09-06T00:20:33.425Z,10.20
2022-09-06T00:20:43.415Z,10.40
2022-09-06T00:20:53.426Z,10.40
2022-09-06T00:21:04.350Z,11.10
2022-09-06T00:21:13.422Z,11.40
2022-09-06T00:21:23.420Z,11.90
2022-09-06T00:21:33.419Z,11.30
2022-09-06T00:21:43.559Z,10.40
2022-09-06T00:21:53.433Z,9.40
2022-09-06T00:22:03.409Z,9.70
2022-09-06T00:22:13.430Z,10.00
2022-09-06T00:22:23.416Z,10.30
2022-09-06T00:22:33.428Z,9.70
2022-09-06T00:22:43.428Z,10.10
2022-09-06T00:22:53.433Z,10.50
2022-09-06T00:23:04.371Z,10.40
2022-09-06T00:23:13.430Z,10.60
2022-09-06T00:23:23.405Z,10.10
2022-09-06T00:23:33.409Z,10.10
2022-09-06T00:23:43.410Z,8.90
2022-09-06T00:23:53.428Z,8.90
2022-09-06T00:24:03.456Z,8.70
2022-09-06T00:24:13.462Z,8.70
2022-09-06T00:24:23.416Z,8.50
2022-09-06T00:24:33.408Z,8.60
2022-09-06T00:24:43.425Z,9.00
2022-09-06T00:24:53.410Z,9.80
2022-09-06T00:25:03.406Z,10.10
2022-09-06T00:25:13.413Z,9.80
2022-09-06T00:25:23.424Z,9.10
2022-09-06T00:25:33.413Z,9.30
2022-09-06T00:25:43.397Z,10.00
2022-09-06T00:25:53.403Z,12.80
2022-09-06T00:26:04.449Z,10.40
2022-09-06T00:26:13.403Z,10.40
2022-09-06T00:26:23.392Z,10.60
2022-09-06T00:26:33.396Z,10.40
2022-09-06T00:26:43.447Z,10.20
2022-09-06T00:26:53.394Z,9.60
2022-09-06T00:27:03.416Z,9.70
2022-09-06T00:27:14.348Z,10.20
2022-09-06T00:27:23.394Z,10.40
2022-09-06T00:27:33.406Z,10.70
2022-09-06T00:27:43.385Z,10.80
2022-09-06T00:27:53.393Z,11.00
2022-09-06T00:28:04.410Z,11.10
2022-09-06T00:28:14.461Z,11.40
2022-09-06T00:28:23.463Z,11.60
2022-09-06T00:28:33.387Z,11.30
2022-09-06T00:28:43.385Z,10.50
2022-09-06T00:28:53.383Z,10.00
2022-09-06T00:29:03.380Z,10.80
2022-09-06T00:29:13.388Z,11.10
2022-09-06T00:29:23.443Z,11.60
2022-09-06T00:29:33.384Z,12.20
2022-09-06T00:29:43.378Z,12.00
2022-09-06T00:29:53.414Z,11.30
2022-09-06T00:30:03.388Z,9.80
2022-09-06T00:30:14.437Z,10.30
2022-09-06T00:30:23.383Z,10.20
2022-09-06T00:30:33.387Z,10.80
2022-09-06T00:30:43.447Z,10.60
2022-09-06T00:30:53.414Z,10.60
2022-09-06T00:31:03.423Z,10.20
2022-09-06T00:31:13.458Z,10.30
2022-09-06T00:31:24.518Z,10.40
2022-09-06T00:31:33.445Z,10.40
2022-09-06T00:31:43.368Z,10.50
2022-09-06T00:31:53.370Z,12.10
2022-09-06T00:32:03.391Z,12.00
2022-09-06T00:32:13.374Z,10.20
2022-09-06T00:32:23.422Z,10.20
2022-09-06T00:32:33.375Z,9.90
2022-09-06T00:32:43.373Z,10.40
2022-09-06T00:32:53.372Z,9.60
2022-09-06T00:33:03.369Z,9.90
2022-09-06T00:33:13.435Z,9.50
2022-09-06T00:33:23.388Z,11.90
2022-09-06T00:33:33.372Z,10.40
2022-09-06T00:33:43.376Z,10.00
2022-09-06T00:33:53.392Z,9.20
2022-09-06T00:34:03.377Z,9.20
2022-09-06T00:34:13.373Z,9.40
2022-09-06T00:34:26.466Z,9.70
2022-09-06T00:34:34.521Z,9.50
2022-09-06T00:34:43.355Z,9.20
2022-09-06T00:34:53.361Z,9.10
2022-09-06T00:35:03.354Z,9.20
2022-09-06T00:35:13.352Z,9.40
2022-09-06T00:35:23.351Z,9.40
2022-09-06T00:35:33.359Z,9.70
2022-09-06T00:35:43.367Z,9.50
2022-09-06T00:35:53.357Z,9.90
2022-09-06T00:36:03.360Z,9.70
2022-09-06T00:36:13.376Z,9.90
2022-09-06T00:36:24.401Z,10.90
2022-09-06T00:36:33.432Z,10.00
2022-09-06T00:36:43.356Z,9.90
2022-09-06T00:36:53.370Z,9.20
2022-09-06T00:37:03.355Z,9.00
2022-09-06T00:37:13.364Z,9.40
2022-09-06T00:37:23.391Z,8.90
2022-09-06T00:37:33.362Z,8.50
2022-09-06T00:37:43.339Z,7.90
2022-09-06T00:37:53.371Z,8.10
2022-09-06T00:38:03.337Z,8.40
2022-09-06T00:38:13.344Z,8.40
2022-09-06T00:38:23.393Z,8.40
2022-09-06T00:38:33.372Z,8.40
2022-09-06T00:38:43.344Z,8.80
2022-09-06T00:38:53.346Z,8.70
2022-09-06T00:39:03.349Z,8.60
2022-09-06T00:39:13.424Z,8.20
2022-09-06T00:39:23.405Z,9.00
2022-09-06T00:39:33.384Z,9.70
2022-09-06T00:39:43.436Z,10.10
2022-09-06T00:39:53.425Z,9.20
2022-09-06T00:40:03.513Z,8.90
2022-09-06T00:40:13.344Z,8.20
2022-09-06T00:40:23.389Z,8.20
2022-09-06T00:40:33.874Z,8.30
2022-09-06T00:40:43.330Z,8.40
2022-09-06T00:40:53.353Z,8.30
2022-09-06T00:41:03.324Z,7.80
2022-09-06T00:41:13.327Z,7.70
2022-09-06T00:41:23.336Z,8.50
2022-09-06T00:41:33.328Z,9.40
2022-09-06T00:41:43.392Z,9.10
2022-09-06T00:41:53.331Z,8.20
2022-09-06T00:42:03.332Z,8.00
2022-09-06T00:42:13.329Z,9.00
2022-09-06T00:42:23.509Z,9.60
2022-09-06T00:42:33.864Z,9.30
2022-09-06T00:42:43.850Z,8.60
2022-09-06T00:42:53.339Z,8.40
2022-09-06T00:43:03.341Z,8.70
2022-09-06T00:43:13.335Z,9.10
2022-09-06T00:43:23.323Z,8.70
2022-09-06T00:43:33.318Z,8.10
2022-09-06T00:43:43.318Z,7.50
2022-09-06T00:43:53.315Z,7.80
2022-09-06T00:44:03.319Z,8.20
2022-09-06T00:44:13.312Z,9.10
2022-09-06T00:44:23.315Z,9.00
2022-09-06T00:44:33.326Z,9.20
2022-09-06T00:44:43.342Z,8.70
2022-09-06T00:44:53.382Z,8.90
2022-09-06T00:45:03.317Z,9.00
2022-09-06T00:45:13.348Z,9.10
2022-09-06T00:45:23.322Z,9.40
2022-09-06T00:45:33.319Z,8.70
2022-09-06T00:45:43.314Z,8.60
2022-09-06T00:45:53.472Z,7.80
2022-09-06T00:46:03.567Z,8.50
2022-09-06T00:46:13.354Z,8.10
2022-09-06T00:46:23.356Z,8.00
2022-09-06T00:46:33.481Z,7.80
2022-09-06T00:46:43.344Z,7.60
2022-09-06T00:46:53.339Z,8.10
2022-09-06T00:47:03.308Z,8.80
2022-09-06T00:47:13.306Z,9.40
2022-09-06T00:47:23.301Z,9.10
2022-09-06T00:47:33.308Z,8.90
2022-09-06T00:47:43.309Z,9.70
2022-09-06T00:47:53.309Z,9.40
2022-09-06T00:48:03.328Z,8.90
2022-09-06T00:48:13.309Z,7.40
2022-09-06T00:48:23.414Z,7.30
2022-09-06T00:48:33.321Z,8.10
2022-09-06T00:48:43.303Z,8.30
2022-09-06T00:48:53.862Z,8.80
2022-09-06T00:49:03.382Z,8.70
2022-09-06T00:49:13.856Z,9.10
2022-09-06T00:49:23.301Z,9.00
2022-09-06T00:49:33.868Z,9.10
2022-09-06T00:49:43.868Z,10.30
2022-09-06T00:49:53.290Z,13.40
2022-09-06T00:50:03.364Z,9.70
2022-09-06T00:50:13.293Z,8.40
2022-09-06T00:50:23.316Z,8.50
2022-09-06T00:50:33.865Z,8.10
2022-09-06T00:50:43.293Z,8.10
2022-09-06T00:50:53.881Z,7.80
2022-09-06T00:51:03.350Z,8.10
2022-09-06T00:51:13.292Z,8.20
2022-09-06T00:51:23.287Z,8.40
2022-09-06T00:51:33.304Z,8.50
2022-09-06T00:51:43.294Z,8.80
2022-09-06T00:51:53.290Z,8.80
2022-09-06T00:52:03.297Z,8.40
2022-09-06T00:52:13.293Z,10.20
2022-09-06T00:52:23.862Z,10.10
2022-09-06T00:52:33.277Z,10.40
2022-09-06T00:52:43.292Z,7.70
2022-09-06T00:52:53.278Z,8.00
2022-09-06T00:53:03.320Z,8.00
2022-09-06T00:53:13.281Z,8.00
2022-09-06T00:53:23.289Z,8.20
2022-09-06T00:53:33.271Z,8.60
2022-09-06T00:53:43.275Z,8.70
2022-09-06T00:53:53.285Z,8.60
2022-09-06T00:54:03.275Z,8.40
2022-09-06T00:54:13.313Z,8.10
2022-09-06T00:54:23.287Z,8.20
2022-09-06T00:54:33.280Z,8.00
2022-09-06T00:54:43.349Z,7.70
2022-09-06T00:54:53.283Z,7.60
2022-09-06T00:55:03.378Z,7.40
2022-09-06T00:55:13.327Z,8.00
2022-09-06T00:55:23.284Z,8.20
2022-09-06T00:55:33.263Z,12.20
2022-09-06T00:55:43.266Z,11.20
2022-09-06T00:55:53.262Z,10.90
2022-09-06T00:56:03.265Z,7.20
2022-09-06T00:56:13.287Z,7.40
2022-09-06T00:56:23.264Z,7.60
2022-09-06T00:56:33.281Z,8.30
2022-09-06T00:56:43.880Z,8.10
2022-09-06T00:56:53.267Z,7.80
2022-09-06T00:57:03.271Z,7.60
2022-09-06T00:57:13.271Z,7.50
2022-09-06T00:57:23.355Z,7.60
2022-09-06T00:57:33.275Z,7.50
2022-09-06T00:57:43.887Z,7.80
2022-09-06T00:57:53.269Z,7.90
2022-09-06T00:58:03.255Z,8.00
2022-09-06T00:58:13.860Z,7.90
2022-09-06T00:58:23.323Z,7.70
2022-09-06T00:58:33.249Z,7.20
2022-09-06T00:58:43.863Z,7.10
2022-09-06T00:58:53.269Z,7.20
2022-09-06T00:59:03.251Z,7.70
2022-09-06T00:59:13.244Z,7.60
2022-09-06T00:59:23.868Z,7.90
2022-09-06T00:59:33.254Z,7.20
2022-09-06T00:59:43.249Z,7.30
2022-09-06T00:59:53.271Z,7.00
2022-09-06T01:00:03.258Z,7.30
2022-09-06T01:00:13.293Z,7.30
2022-09-06T01:00:23.324Z,7.60
2022-09-06T01:00:33.260Z,8.60
2022-09-06T01:00:43.259Z,8.60
2022-09-06T01:00:53.252Z,8.40
2022-09-06T01:01:03.262Z,7.50
2022-09-06T01:01:13.388Z,8.40
2022-09-06T01:01:23.401Z,8.40
2022-09-06T01:01:33.503Z,8.20
2022-09-06T01:01:43.399Z,7.30
2022-09-06T01:01:53.389Z,7.60
2022-09-06T01:02:03.380Z,7.60
2022-09-06T01:02:13.382Z,7.50
2022-09-06T01:02:23.394Z,7.30
2022-09-06T01:02:33.422Z,7.60
2022-09-06T01:02:43.395Z,7.80
2022-09-06T01:02:53.304Z,8.10
2022-09-06T01:03:03.240Z,8.00
2022-09-06T01:03:13.260Z,8.20
2022-09-06T01:03:23.257Z,7.60
2022-09-06T01:03:33.280Z,8.90
2022-09-06T01:03:43.257Z,8.00
2022-09-06T01:03:53.225Z,8.10
2022-09-06T01:04:03.865Z,7.80
2022-09-06T01:04:13.236Z,7.80
2022-09-06T01:04:23.226Z,8.00
2022-09-06T01:04:33.235Z,7.80
2022-09-06T01:04:43.231Z,8.20
2022-09-06T01:04:53.288Z,8.30
2022-09-06T01:05:03.233Z,8.30
2022-09-06T01:05:13.246Z,7.70
2022-09-06T01:05:23.928Z,8.00
2022-09-06T01:05:33.452Z,8.20
2022-09-06T01:05:43.236Z,9.40
2022-09-06T01:05:54.657Z,7.60
2022-09-06T01:06:03.226Z,7.70
2022-09-06T01:06:13.229Z,8.10
2022-09-06T01:06:23.219Z,13.00
2022-09-06T01:06:33.231Z,9.70
2022-09-06T01:06:43.234Z,7.60
2022-09-06T01:06:53.267Z,6.50
2022-09-06T01:07:03.225Z,6.70
2022-09-06T01:07:13.211Z,6.80
2022-09-06T01:07:23.227Z,7.00
2022-09-06T01:07:33.869Z,7.00
2022-09-06T01:07:43.293Z,6.80
2022-09-06T01:07:53.208Z,7.00
2022-09-06T01:08:03.217Z,10.90
2022-09-06T01:08:13.207Z,11.00
2022-09-06T01:08:23.349Z,8.20
2022-09-06T01:08:33.210Z,6.80
2022-09-06T01:08:43.213Z,7.30
2022-09-06T01:08:53.226Z,8.00
2022-09-06T01:09:03.216Z,8.60
2022-09-06T01:09:13.215Z,7.30
2022-09-06T01:09:23.235Z,6.70
2022-09-06T01:09:33.221Z,6.80
2022-09-06T01:09:43.225Z,6.90
2022-09-06T01:09:53.199Z,7.00
2022-09-06T01:10:03.374Z,6.70
2022-09-06T01:10:13.211Z,6.90
2022-09-06T01:10:23.264Z,6.80
2022-09-06T01:10:33.206Z,6.70
2022-09-06T01:10:43.449Z,6.30
2022-09-06T01:10:53.208Z,6.30
2022-09-06T01:11:03.206Z,6.50
2022-09-06T01:11:13.193Z,7.00
2022-09-06T01:11:23.255Z,7.60
2022-09-06T01:11:33.198Z,8.60
2022-09-06T01:11:43.231Z,12.70
2022-09-06T01:11:53.314Z,8.30
2022-09-06T01:12:03.239Z,8.10
2022-09-06T01:12:13.199Z,7.20
2022-09-06T01:12:23.203Z,7.50
2022-09-06T01:12:33.207Z,7.40
2022-09-06T01:12:43.194Z,7.60
2022-09-06T01:12:53.184Z,7.50
2022-09-06T01:13:03.196Z,7.00
2022-09-06T01:13:13.190Z,7.80
2022-09-06T01:13:23.210Z,7.90
2022-09-06T01:13:33.200Z,7.80
2022-09-06T01:13:43.876Z,6.60
2022-09-06T01:13:53.878Z,6.80
2022-09-06T01:14:03.195Z,6.90
2022-09-06T01:14:13.197Z,6.60
2022-09-06T01:14:23.286Z,6.70
2022-09-06T01:14:33.205Z,6.70
2022-09-06T01:14:43.193Z,7.50
2022-09-06T01:14:53.179Z,7.30
2022-09-06T01:15:03.212Z,7.50
2022-09-06T01:15:13.190Z,6.70
2022-09-06T01:15:23.290Z,7.10
2022-09-06T01:15:33.303Z,6.50
2022-09-06T01:15:43.251Z,9.80
2022-09-06T01:15:53.324Z,7.50
2022-09-06T01:16:03.265Z,10.10
2022-09-06T01:16:13.241Z,7.70
2022-09-06T01:16:23.194Z,9.50
2022-09-06T01:16:33.173Z,7.10
2022-09-06T01:16:43.282Z,6.90
2022-09-06T01:16:53.167Z,6.40
2022-09-06T01:17:03.176Z,6.30
2022-09-06T01:17:13.175Z,6.60
2022-09-06T01:17:23.168Z,6.60
2022-09-06T01:17:33.181Z,6.90
2022-09-06T01:17:43.174Z,7.00
2022-09-06T01:17:53.878Z,7.30
2022-09-06T01:18:03.874Z,7.50
2022-09-06T01:18:13.176Z,7.20
2022-09-06T01:18:23.237Z,7.00
2022-09-06T01:18:33.167Z,6.60
2022-09-06T01:18:43.175Z,6.60
2022-09-06T01:18:53.180Z,7.70
2022-09-06T01:19:03.164Z,8.20
2022-09-06T01:19:13.182Z,8.40
2022-09-06T01:19:23.173Z,8.60
2022-09-06T01:19:33.163Z,7.50
2022-09-06T01:19:43.885Z,7.30
2022-09-06T01:19:53.884Z,7.30
2022-09-06T01:20:03.890Z,7.70
2022-09-06T01:20:13.153Z,7.60
2022-09-06T01:20:23.178Z,7.50
2022-09-06T01:20:33.240Z,7.40
2022-09-06T01:20:43.171Z,7.40
2022-09-06T01:20:53.169Z,7.10
2022-09-06T01:21:03.219Z,6.80
2022-09-06T01:21:13.176Z,6.90
2022-09-06T01:21:23.227Z,7.10
2022-09-06T01:21:33.149Z,8.60
2022-09-06T01:21:43.155Z,8.30
2022-09-06T01:21:53.148Z,10.30
2022-09-06T01:22:03.161Z,6.90
2022-09-06T01:22:13.882Z,6.30
2022-09-06T01:22:23.145Z,6.10
2022-09-06T01:22:33.155Z,6.60
2022-09-06T01:22:43.152Z,6.90
2022-09-06T01:22:53.151Z,6.70
2022-09-06T01:23:03.153Z,7.00
2022-09-06T01:23:13.156Z,6.70
2022-09-06T01:23:25.886Z,6.90
2022-09-06T01:23:33.143Z,6.40
2022-09-06T01:23:43.157Z,7.30
2022-09-06T01:23:53.143Z,10.30
2022-09-06T01:24:03.164Z,7.50
2022-09-06T01:24:13.136Z,6.80
2022-09-06T01:24:23.137Z,6.90
2022-09-06T01:24:33.301Z,7.80
2022-09-06T01:24:43.139Z,7.50
2022-09-06T01:24:53.147Z,7.30
2022-09-06T01:25:03.186Z,7.00
2022-09-06T01:25:13.140Z,7.10
2022-09-06T01:25:23.144Z,6.70
2022-09-06T01:25:33.146Z,6.90
2022-09-06T01:25:43.162Z,7.10
2022-09-06T01:25:53.142Z,7.80
2022-09-06T01:26:03.141Z,9.10
2022-09-06T01:26:13.426Z,14.50
2022-09-06T01:26:23.877Z,9.40
2022-09-06T01:26:33.137Z,7.80
2022-09-06T01:26:43.889Z,7.10
2022-09-06T01:26:53.156Z,8.20
2022-09-06T01:27:03.122Z,7.80
2022-09-06T01:27:13.884Z,7.80
2022-09-06T01:27:23.146Z,6.80
2022-09-06T01:27:33.200Z,6.80
2022-09-06T01:27:43.127Z,6.50
2022-09-06T01:27:53.137Z,6.10
2022-09-06T01:28:03.119Z,6.50
2022-09-06T01:28:13.123Z,9.50
2022-09-06T01:28:23.886Z,9.70
2022-09-06T01:28:33.121Z,9.80
2022-09-06T01:28:43.131Z,6.70
2022-09-06T01:28:53.246Z,6.70
2022-09-06T01:29:03.125Z,6.90
2022-09-06T01:29:13.136Z,7.00
2022-09-06T01:29:23.122Z,7.50
2022-09-06T01:29:33.117Z,7.40
2022-09-06T01:29:43.137Z,7.60
2022-09-06T01:29:53.149Z,7.70
2022-09-06T01:30:03.112Z,7.20
2022-09-06T01:30:13.116Z,6.70
2022-09-06T01:30:23.138Z,7.00
2022-09-06T01:30:33.972Z,7.50
2022-09-06T01:30:43.158Z,8.00
2022-09-06T01:30:53.204Z,12.80
2022-09-06T01:31:03.166Z,18.60
2022-09-06T01:31:13.162Z,15.70
2022-09-06T01:31:23.279Z,8.20
2022-09-06T01:31:33.121Z,7.40
2022-09-06T01:31:43.111Z,7.20
2022-09-06T01:31:53.109Z,7.50
2022-09-06T01:32:03.105Z,7.50
2022-09-06T01:32:13.126Z,8.80
2022-09-06T01:32:23.120Z,6.60
2022-09-06T01:32:33.942Z,6.30
2022-09-06T01:32:43.192Z,6.40
2022-09-06T01:32:53.100Z,6.70
2022-09-06T01:33:03.097Z,7.10
2022-09-06T01:33:13.120Z,7.00
2022-09-06T01:33:23.101Z,7.00
2022-09-06T01:33:33.103Z,6.40
2022-09-06T01:33:43.134Z,6.50
2022-09-06T01:33:53.102Z,7.30
2022-09-06T01:34:03.104Z,7.60
2022-09-06T01:34:13.100Z,8.00
2022-09-06T01:34:23.099Z,7.00
2022-09-06T01:34:33.105Z,6.80
2022-09-06T01:34:43.880Z,6.70
2022-09-06T01:34:53.099Z,6.70
2022-09-06T01:35:03.176Z,6.70
2022-09-06T01:35:13.185Z,6.90
2022-09-06T01:35:23.108Z,7.10
2022-09-06T01:35:33.107Z,6.90
2022-09-06T01:35:43.087Z,6.80
2022-09-06T01:35:53.100Z,6.90
2022-09-06T01:36:03.083Z,11.30
2022-09-06T01:36:13.086Z,8.90
2022-09-06T01:36:23.088Z,12.90
2022-09-06T01:36:33.492Z,12.40
2022-09-06T01:37:06.142Z,12.10
2022-09-06T01:37:09.052Z,16.10
2022-09-06T01:37:11.067Z,9.60
2022-09-06T01:37:13.909Z,12.30
2022-09-06T01:37:23.083Z,7.30
2022-09-06T01:37:33.905Z,7.70
2022-09-06T01:37:43.901Z,7.30
2022-09-06T01:37:53.094Z,7.00
2022-09-06T01:38:03.891Z,6.30
2022-09-06T01:38:13.112Z,6.90
2022-09-06T01:38:23.172Z,7.20
2022-09-06T01:38:33.089Z,7.30
2022-09-06T01:38:43.887Z,7.10
2022-09-06T01:38:53.130Z,6.90
2022-09-06T01:39:03.068Z,6.70
2022-09-06T01:39:13.074Z,6.50
2022-09-06T01:39:23.121Z,6.70
2022-09-06T01:39:33.182Z,7.30
2022-09-06T01:39:43.119Z,7.00
2022-09-06T01:39:53.124Z,7.10
2022-09-06T01:40:03.143Z,6.60
2022-09-06T01:40:13.114Z,7.20
2022-09-06T01:40:23.066Z,7.60
2022-09-06T01:40:33.069Z,7.70
2022-09-06T01:40:43.100Z,7.50
2022-09-06T01:40:53.887Z,7.50
2022-09-06T01:41:03.084Z,9.40
2022-09-06T01:41:13.090Z,12.00
2022-09-06T01:41:23.145Z,7.10
2022-09-06T01:41:33.077Z,6.90
2022-09-06T01:41:43.112Z,7.20
2022-09-06T01:41:53.067Z,6.80
2022-09-06T01:42:03.058Z,6.80
2022-09-06T01:42:13.058Z,6.80
2022-09-06T01:42:23.058Z,7.60
2022-09-06T01:42:33.076Z,7.40
2022-09-06T01:42:43.962Z,7.30
2022-09-06T01:42:53.084Z,7.00
2022-09-06T01:43:04.564Z,7.20
2022-09-06T01:43:13.063Z,7.00
2022-09-06T01:43:23.061Z,6.90
2022-09-06T01:43:33.068Z,7.00
2022-09-06T01:43:43.047Z,7.50
2022-09-06T01:43:53.074Z,7.70
2022-09-06T01:44:03.092Z,7.70
2022-09-06T01:44:13.052Z,7.10
2022-09-06T01:44:23.066Z,6.70
2022-09-06T01:44:33.118Z,6.70
2022-09-06T01:44:43.052Z,7.20
2022-09-06T01:44:53.069Z,10.50
2022-09-06T01:45:03.083Z,8.80
2022-09-06T01:45:13.047Z,10.90
2022-09-06T01:45:23.050Z,7.00
2022-09-06T01:45:33.044Z,7.20
2022-09-06T01:45:43.110Z,6.80
2022-09-06T01:45:53.125Z,6.60
2022-09-06T01:46:03.092Z,6.70
2022-09-06T01:46:13.140Z,6.80
2022-09-06T01:46:23.149Z,7.00
2022-09-06T01:46:33.106Z,6.70
2022-09-06T01:46:43.058Z,6.60
2022-09-06T01:46:53.103Z,6.40
2022-09-06T01:47:03.933Z,6.60
2022-09-06T01:47:13.084Z,7.10
2022-09-06T01:47:23.058Z,7.00
2022-09-06T01:47:33.138Z,7.60
2022-09-06T01:47:43.069Z,7.50
2022-09-06T01:47:53.052Z,11.70
2022-09-06T01:48:03.033Z,9.20
2022-09-06T01:48:13.047Z,9.10
2022-09-06T01:48:23.043Z,7.30
2022-09-06T01:48:33.036Z,7.10
2022-09-06T01:48:43.036Z,6.70
2022-09-06T01:48:53.890Z,6.70
2022-09-06T01:49:03.029Z,7.00
2022-09-06T01:49:14.013Z,8.00
2022-09-06T01:49:23.134Z,8.70
2022-09-06T01:49:33.029Z,8.80
2022-09-06T01:49:43.194Z,10.30
2022-09-06T01:49:53.025Z,7.90
2022-09-06T01:50:03.033Z,7.90
2022-09-06T01:50:13.151Z,7.10
2022-09-06T01:50:23.022Z,7.00
2022-09-06T01:50:33.897Z,7.40
2022-09-06T01:50:43.086Z,8.00
2022-09-06T01:50:53.044Z,7.90
2022-09-06T01:51:03.019Z,7.50
2022-09-06T01:51:13.082Z,7.10
2022-09-06T01:51:23.111Z,7.10
2022-09-06T01:51:33.020Z,6.90
2022-09-06T01:51:43.018Z,6.90
2022-09-06T01:51:53.032Z,7.00
2022-09-06T01:52:03.067Z,7.00
2022-09-06T01:52:13.030Z,6.50
2022-09-06T01:52:23.022Z,6.60
2022-09-06T01:52:33.047Z,6.90
2022-09-06T01:52:43.011Z,7.30
2022-09-06T01:52:53.022Z,7.60
2022-09-06T01:53:03.105Z,7.80
2022-09-06T01:53:13.927Z,7.40
2022-09-06T01:53:23.909Z,7.40
2022-09-06T01:53:33.022Z,7.40
2022-09-06T01:53:43.011Z,8.00
2022-09-06T01:53:53.020Z,7.50
2022-09-06T01:54:03.002Z,7.50
2022-09-06T01:54:13.012Z,7.80
2022-09-06T01:54:23.031Z,8.40
2022-09-06T01:54:33.010Z,8.30
2022-09-06T01:54:43.019Z,8.30
2022-09-06T01:54:53.011Z,8.60
2022-09-06T01:55:03.009Z,9.50
2022-09-06T01:55:13.007Z,7.90
2022-09-06T01:55:23.034Z,7.30
2022-09-06T01:55:33.073Z,7.10
2022-09-06T01:55:43.008Z,10.70
2022-09-06T01:55:53.032Z,10.90
2022-09-06T01:56:02.993Z,12.40
2022-09-06T01:56:13.920Z,15.10
2022-09-06T01:56:22.992Z,14.90
2022-09-06T01:56:32.996Z,8.00
2022-09-06T01:56:43.017Z,6.60
2022-09-06T01:56:52.995Z,6.70
2022-09-06T01:57:02.994Z,6.70
2022-09-06T01:57:13.037Z,6.70
2022-09-06T01:57:22.988Z,6.90
2022-09-06T01:57:33.025Z,7.10
2022-09-06T01:57:42.998Z,7.00
2022-09-06T01:57:52.992Z,6.60
2022-09-06T01:58:02.994Z,5.90
2022-09-06T01:58:13.132Z,6.00
2022-09-06T01:58:23.074Z,6.20
2022-09-06T01:58:32.998Z,6.10
2022-09-06T01:58:43.004Z,6.00
2022-09-06T01:58:52.990Z,5.80
2022-09-06T01:59:03.003Z,6.00
2022-09-06T01:59:13.018Z,6.70
2022-09-06T01:59:22.981Z,6.60
2022-09-06T01:59:33.966Z,6.50
2022-09-06T01:59:43.041Z,6.10
2022-09-06T01:59:52.983Z,6.90
2022-09-06T02:00:03.016Z,7.40
2022-09-06T02:00:13.893Z,9.60
2022-09-06T02:00:22.986Z,6.80
2022-09-06T02:00:33.001Z,6.90
2022-09-06T02:00:42.978Z,6.90
2022-09-06T02:00:52.985Z,6.90
2022-09-06T02:01:03.063Z,6.50
2022-09-06T02:01:13.037Z,5.90
2022-09-06T02:01:23.060Z,5.80
2022-09-06T02:01:33.065Z,5.90
2022-09-06T02:01:43.175Z,5.80
2022-09-06T02:01:53.179Z,6.30
2022-09-06T02:02:03.086Z,6.50
2022-09-06T02:02:13.019Z,7.60
2022-09-06T02:02:23.057Z,7.50
2022-09-06T02:02:33.137Z,6.60
2022-09-06T02:02:43.029Z,6.70
2022-09-06T02:02:53.041Z,7.90
2022-09-06T02:03:02.969Z,7.70
2022-09-06T02:03:13.098Z,7.40
2022-09-06T02:03:22.975Z,5.90
2022-09-06T02:03:32.962Z,6.20
2022-09-06T02:03:42.972Z,6.50
2022-09-06T02:03:53.038Z,6.60
2022-09-06T02:04:02.965Z,6.30
2022-09-06T02:04:12.961Z,7.00
2022-09-06T02:04:23.903Z,7.70
2022-09-06T02:04:32.989Z,7.90
2022-09-06T02:04:43.012Z,7.30
2022-09-06T02:04:53.920Z,7.00
2022-09-06T02:05:02.974Z,7.60
2022-09-06T02:05:12.971Z,7.10
2022-09-06T02:05:22.952Z,7.40
2022-09-06T02:05:32.955Z,6.90
2022-09-06T02:05:42.973Z,7.30
2022-09-06T02:05:54.014Z,7.10
2022-09-06T02:06:03.090Z,7.00
2022-09-06T02:06:12.966Z,7.00
2022-09-06T02:06:22.950Z,9.50
2022-09-06T02:06:32.987Z,9.40
2022-09-06T02:06:42.980Z,9.70
2022-09-06T02:06:52.956Z,7.40
2022-09-06T02:07:02.948Z,8.20
2022-09-06T02:07:12.970Z,7.70
2022-09-06T02:07:22.943Z,7.10
2022-09-06T02:07:33.461Z,6.90
2022-09-06T02:07:42.974Z,6.80
2022-09-06T02:07:53.955Z,7.20
2022-09-06T02:08:03.062Z,7.80
2022-09-06T02:08:12.980Z,7.80
2022-09-06T02:08:23.003Z,8.10
2022-09-06T02:08:33.898Z,7.20
2022-09-06T02:08:42.939Z,8.10
2022-09-06T02:08:52.938Z,7.90
2022-09-06T02:09:02.964Z,8.20
2022-09-06T02:09:12.945Z,7.80
2022-09-06T02:09:22.943Z,7.50
2022-09-06T02:09:32.953Z,7.00
2022-09-06T02:09:43.920Z,6.50
2022-09-06T02:09:52.945Z,6.50
2022-09-06T02:10:03.958Z,6.70
2022-09-06T02:10:12.944Z,7.40
2022-09-06T02:10:22.954Z,7.50
2022-09-06T02:10:32.957Z,7.20
2022-09-06T02:10:42.945Z,6.50
2022-09-06T02:10:52.961Z,6.10
2022-09-06T02:11:02.970Z,6.30
2022-09-06T02:11:12.925Z,6.60
2022-09-06T02:11:22.942Z,6.60
2022-09-06T02:11:32.931Z,6.70
2022-09-06T02:11:42.926Z,7.00
2022-09-06T02:11:53.054Z,7.70
2022-09-06T02:12:03.937Z,8.00
2022-09-06T02:12:13.124Z,7.90